Time;durP1;ratioP1;P1;durP2;ratioP2;P2;SDS_P1;SDS_P2;PMS_P1;PMS_P2;Temp;Humidity;BMP_temperature;BMP_pressure;BME280_temperature;BME280_humidity;BME280_pressure;Samples;Min_cycle;Max_cycle;Signal;HPM_P1;HPM_P2
2022/11/17 00:02:47;;;;;;;58.75;29.38;;;;;;;;;;10558765;28;20015;-75
2022/11/17 00:07:48;;;;;;;67.78;26.35;;;;;;;;;;10559078;28;20035;-75
2022/11/17 00:23:45;;;;;;;57.95;25.83;;;;;;;;;;10582180;28;20020;-74
2022/11/17 00:28:46;;;;;;;52.40;25.48;;;;;;;;;;10580258;28;20551;-72
2022/11/17 00:34:04;;;;;;;57.70;25.95;;;;;;;;;;10597258;27;20029;-72
2022/11/17 00:39:05;;;;;;;59.88;28.58;;;;;;;;;;10592648;27;20047;-73
2022/11/17 00:44:06;;;;;;;66.10;28.17;;;;;;;;;;10618173;27;20578;-73
2022/11/17 00:49:07;;;;;;;56.53;27.50;;;;;;;;;;10600280;27;20071;-74
2022/11/17 00:54:10;;;;;;;49.05;25.02;;;;;;;;;;10618937;27;20019;-74
2022/11/17 00:59:10;;;;;;;49.67;24.65;;;;;;;;;;10599849;27;20498;-72
2022/11/17 01:04:11;;;;;;;49.95;23.88;;;;;;;;;;10599250;27;20016;-74
2022/11/17 01:09:13;;;;;;;49.72;25.40;;;;;;;;;;10618761;27;20030;-74
2022/11/17 01:14:14;;;;;;;54.78;23.08;;;;;;;;;;10567131;27;20116;-74
2022/11/17 01:19:16;;;;;;;39.80;20.77;;;;;;;;;;10556609;27;20111;-74
2022/11/17 01:24:16;;;;;;;44.03;23.58;;;;;;;;;;10622023;27;20546;-73
2022/11/17 01:29:17;;;;;;;49.25;23.48;;;;;;;;;;10597820;27;20067;-73
2022/11/17 01:34:17;;;;;;;47.20;22.05;;;;;;;;;;10584571;27;20026;-74
2022/11/17 01:39:18;;;;;;;45.83;22.30;;;;;;;;;;10580366;27;20541;-75
2022/11/17 01:44:37;;;;;;;49.45;22.60;;;;;;;;;;10596134;27;20264;-75
2022/11/17 01:49:37;;;;;;;47.40;22.50;;;;;;;;;;10597328;27;20023;-72
2022/11/17 01:54:39;;;;;;;42.40;21.05;;;;;;;;;;10609683;27;20020;-74
2022/11/17 01:59:45;;;;;;;49.03;22.27;;;;;;;;;;10589109;27;20026;-73
2022/11/17 02:04:49;;;;;;;52.38;23.27;;;;;;;;;;10579796;27;20478;-75
2022/11/17 02:09:50;;;;;;;46.75;22.48;;;;;;;;;;10596426;27;20102;-73
2022/11/17 02:14:51;;;;;;;44.13;20.30;;;;;;;;;;10596231;27;20086;-74
2022/11/17 02:19:57;;;;;;;44.45;20.85;;;;;;;;;;10596155;27;20019;-75
2022/11/17 02:25:20;;;;;;;39.45;19.77;;;;;;;;;;10596107;27;20087;-74
2022/11/17 02:30:21;;;;;;;36.47;17.92;;;;;;;;;;10553661;28;20019;-74
2022/11/17 02:35:30;;;;;;;37.25;18.30;;;;;;;;;;10573859;28;20048;-73
2022/11/17 02:40:39;;;;;;;45.03;20.80;;;;;;;;;;10596050;28;20489;-73
2022/11/17 02:45:39;;;;;;;;;;;;;;;;;;10625310;27;20060;-73
2022/11/17 02:50:40;;;;;;;40.90;18.40;;;;;;;;;;10605168;27;20382;-73
2022/11/17 02:55:47;;;;;;;35.78;16.63;;;;;;;;;;10603424;27;20474;-75
2022/11/17 03:00:50;;;;;;;43.90;16.23;;;;;;;;;;10622831;27;20023;-74
2022/11/17 03:06:11;;;;;;;27.92;13.98;;;;;;;;;;10604177;27;20395;-73
2022/11/17 03:11:12;;;;;;;32.22;15.65;;;;;;;;;;10561296;28;20040;-74
2022/11/17 03:16:22;;;;;;;26.17;14.90;;;;;;;;;;10611697;27;20466;-73
2022/11/17 03:21:28;;;;;;;27.73;14.70;;;;;;;;;;10588085;27;20249;-74
2022/11/17 03:26:34;;;;;;;30.85;15.02;;;;;;;;;;10573524;27;20145;-73
2022/11/17 03:31:35;;;;;;;33.70;14.50;;;;;;;;;;10602702;27;20516;-73
2022/11/17 03:36:37;;;;;;;25.23;14.00;;;;;;;;;;10620885;27;20043;-76
2022/11/17 03:41:40;;;;;;;29.05;14.10;;;;;;;;;;10602055;27;20394;-74
2022/11/17 03:46:42;;;;;;;32.05;17.90;;;;;;;;;;10601962;27;20024;-74
2022/11/17 03:51:42;;;;;;;28.02;15.98;;;;;;;;;;10601726;27;20029;-78
2022/11/17 03:56:42;;;;;;;35.15;17.27;;;;;;;;;;10601413;27;20023;-81
2022/11/17 04:01:43;;;;;;;37.30;19.30;;;;;;;;;;10620368;27;20019;-77
2022/11/17 04:06:43;;;;;;;35.53;18.55;;;;;;;;;;10600826;27;20029;-75
2022/11/17 04:17:02;;;;;;;36.88;19.48;;;;;;;;;;10619334;27;20015;-72
2022/11/17 04:22:02;;;;;;;40.25;19.38;;;;;;;;;;10601271;27;20023;-75
2022/11/17 04:32:21;;;;;;;35.28;18.10;;;;;;;;;;10612583;27;20019;-75
2022/11/17 04:37:22;;;;;;;35.22;18.88;;;;;;;;;;10600377;27;20494;-74
2022/11/17 04:42:22;;;;;;;36.10;18.00;;;;;;;;;;10563563;28;20032;-71
2022/11/17 04:47:23;;;;;;;39.70;19.67;;;;;;;;;;10578714;27;20153;-74
2022/11/17 04:52:24;;;;;;;36.72;18.45;;;;;;;;;;10584360;27;20034;-73
2022/11/17 04:57:24;;;;;;;45.72;20.55;;;;;;;;;;10578450;27;20050;-77
2022/11/17 05:02:24;;;;;;;37.03;18.38;;;;;;;;;;10601711;27;20023;-72
2022/11/17 05:07:24;;;;;;;40.20;19.50;;;;;;;;;;10621306;27;20023;-74
2022/11/17 05:17:43;;;;;;;44.13;20.05;;;;;;;;;;10629115;27;20019;-71
2022/11/17 05:28:03;;;;;;;39.08;19.55;;;;;;;;;;10616646;27;20102;-73
2022/11/17 05:33:04;;;;;;;35.03;18.27;;;;;;;;;;10610182;27;20406;-78
2022/11/17 05:38:04;;;;;;;38.13;20.55;;;;;;;;;;10595707;27;20532;-72
2022/11/17 05:43:05;;;;;;;42.58;20.60;;;;;;;;;;10595160;27;20025;-73
2022/11/17 05:48:05;;;;;;;44.28;21.08;;;;;;;;;;10613098;27;20027;-76
2022/11/17 05:53:05;;;;;;;40.83;20.50;;;;;;;;;;10583635;27;20559;-73
2022/11/17 05:58:10;;;;;;;50.60;24.20;;;;;;;;;;10572710;27;20285;-72
2022/11/17 06:03:19;;;;;;;45.83;22.77;;;;;;;;;;10594694;27;20068;-72
2022/11/17 06:08:19;;;;;;;45.33;22.25;;;;;;;;;;10578083;27;20122;-72
2022/11/17 06:13:24;;;;;;;39.22;22.38;;;;;;;;;;10584512;27;20530;-73
2022/11/17 06:18:31;;;;;;;52.60;23.98;;;;;;;;;;10588575;27;20054;-74
2022/11/17 06:23:32;;;;;;;50.03;23.33;;;;;;;;;;10637338;22;20047;-73
2022/11/17 06:28:33;;;;;;;47.63;23.63;;;;;;;;;;10479959;28;20017;-75
2022/11/17 06:33:35;;;;;;;50.50;23.17;;;;;;;;;;10465437;28;20051;-74
2022/11/17 06:38:35;;;;;;;41.53;19.10;;;;;;;;;;10484920;28;20067;-74
2022/11/17 06:43:37;;;;;;;39.88;19.02;;;;;;;;;;10487527;28;20057;-79
2022/11/17 06:48:37;;;;;;;38.00;18.00;;;;;;;;;;10487090;28;20074;-72
2022/11/17 06:53:38;;;;;;;36.83;17.25;;;;;;;;;;10468790;28;20047;-73
2022/11/17 06:58:40;;;;;;;40.25;17.52;;;;;;;;;;10468924;28;20025;-73
2022/11/17 07:03:44;;;;;;;35.53;18.40;;;;;;;;;;10468758;28;20020;-73
2022/11/17 07:08:44;;;;;;;33.33;16.60;;;;;;;;;;10469028;28;20021;-73
2022/11/17 07:13:45;;;;;;;27.92;14.20;;;;;;;;;;10488228;28;20024;-73
2022/11/17 07:18:45;;;;;;;24.90;13.43;;;;;;;;;;10470701;28;20222;-80
2022/11/17 07:23:45;;;;;;;16.17;8.82;;;;;;;;;;10469241;28;20067;-73
2022/11/17 07:28:47;;;;;;;13.80;7.60;;;;;;;;;;10491199;28;20028;-73
2022/11/17 07:33:49;;;;;;;12.55;5.60;;;;;;;;;;10501883;28;20455;-73
2022/11/17 07:38:49;;;;;;;12.25;5.20;;;;;;;;;;10493637;28;20048;-73
2022/11/17 07:43:49;;;;;;;10.07;5.72;;;;;;;;;;10510126;28;20021;-74
2022/11/17 07:48:52;;;;;;;5.35;3.28;;;;;;;;;;10478197;28;20148;-73
2022/11/17 07:53:52;;;;;;;13.23;6.53;;;;;;;;;;10476648;28;20028;-73
2022/11/17 07:58:53;;;;;;;10.45;6.28;;;;;;;;;;10476044;28;20020;-75
2022/11/17 08:03:53;;;;;;;21.73;7.18;;;;;;;;;;10466592;28;20012;-74
2022/11/17 08:08:53;;;;;;;16.70;8.80;;;;;;;;;;10468965;28;20016;-73
2022/11/17 08:13:53;;;;;;;17.52;9.73;;;;;;;;;;10471344;28;20027;-73
2022/11/17 08:18:54;;;;;;;14.73;7.75;;;;;;;;;;10462386;28;20567;-73
2022/11/17 08:23:55;;;;;;;17.95;10.30;;;;;;;;;;10471032;28;20594;-79
2022/11/17 08:28:57;;;;;;;17.63;9.45;;;;;;;;;;10482574;28;20032;-73
2022/11/17 08:33:57;;;;;;;15.02;7.57;;;;;;;;;;10480740;28;20032;-73
2022/11/17 08:38:57;;;;;;;19.17;7.93;;;;;;;;;;10461792;28;20036;-75
2022/11/17 08:43:57;;;;;;;13.63;6.73;;;;;;;;;;10486829;28;20402;-76
2022/11/17 08:48:59;;;;;;;17.38;7.82;;;;;;;;;;10470157;28;20263;-74
2022/11/17 08:53:59;;;;;;;16.40;8.38;;;;;;;;;;10485454;28;20029;-74
2022/11/17 08:59:00;;;;;;;17.55;9.27;;;;;;;;;;10461443;28;20495;-75
2022/11/17 09:04:01;;;;;;;13.77;8.68;;;;;;;;;;10479388;28;20083;-73
2022/11/17 09:09:01;;;;;;;15.73;9.57;;;;;;;;;;10472286;28;20085;-73
2022/11/17 09:14:01;;;;;;;16.77;9.13;;;;;;;;;;10445012;28;20449;-73
2022/11/17 09:19:02;;;;;;;22.08;9.65;;;;;;;;;;10468205;28;20025;-73
2022/11/17 09:24:02;;;;;;;15.83;10.53;;;;;;;;;;10462927;28;20453;-73
2022/11/17 09:29:02;;;;;;;16.93;9.47;;;;;;;;;;10476168;28;20420;-73
2022/11/17 09:34:03;;;;;;;17.50;8.90;;;;;;;;;;10457534;28;20271;-77
2022/11/17 09:39:03;;;;;;;12.70;7.15;;;;;;;;;;10466404;28;20118;-75
2022/11/17 09:44:12;;;;;;;12.63;6.93;;;;;;;;;;10470285;28;20174;-74
2022/11/17 09:49:12;;;;;;;14.25;7.60;;;;;;;;;;10466123;28;20024;-72
2022/11/17 09:54:17;;;;;;;18.27;6.88;;;;;;;;;;10480468;28;20432;-73
2022/11/17 09:59:19;;;;;;;13.07;6.93;;;;;;;;;;10467861;28;20143;-73
2022/11/17 10:04:20;;;;;;;11.25;6.50;;;;;;;;;;10467915;28;20403;-74
2022/11/17 10:09:26;;;;;;;19.33;7.57;;;;;;;;;;10464990;28;20025;-73
2022/11/17 10:14:27;;;;;;;15.95;7.35;;;;;;;;;;10477784;28;20028;-74
2022/11/17 10:19:31;;;;;;;11.27;7.00;;;;;;;;;;10471726;28;20027;-74
2022/11/17 10:24:40;;;;;;;14.23;6.05;;;;;;;;;;10469582;28;20024;-74
2022/11/17 10:29:50;;;;;;;11.30;7.32;;;;;;;;;;10459827;28;20047;-74
2022/11/17 10:34:50;;;;;;;12.15;6.72;;;;;;;;;;10456273;28;20531;-73
2022/11/17 10:40:01;;;;;;;10.93;6.45;;;;;;;;;;10457098;28;20178;-76
2022/11/17 10:45:01;;;;;;;8.82;5.50;;;;;;;;;;10459445;28;20021;-75
2022/11/17 10:50:11;;;;;;;10.80;6.10;;;;;;;;;;10462989;28;20419;-72
2022/11/17 10:55:18;;;;;;;11.98;6.85;;;;;;;;;;10454383;28;20048;-76
2022/11/17 11:00:22;;;;;;;15.73;7.10;;;;;;;;;;10476247;28;20032;-75
2022/11/17 11:05:23;;;;;;;17.15;7.00;;;;;;;;;;10467793;28;20016;-75
2022/11/17 11:10:30;;;;;;;15.93;7.03;;;;;;;;;;10469987;28;20024;-79
2022/11/17 11:15:33;;;;;;;13.73;6.93;;;;;;;;;;10469949;28;20591;-75
2022/11/17 11:20:51;;;;;;;16.83;6.35;;;;;;;;;;10485901;28;20535;-73
2022/11/17 11:26:15;;;;;;;14.10;5.60;;;;;;;;;;10464792;28;20119;-73
2022/11/17 11:31:21;;;;;;;9.88;6.10;;;;;;;;;;10477662;28;20041;-80
2022/11/17 11:36:37;;;;;;;15.07;6.82;;;;;;;;;;10456347;28;20020;-73
2022/11/17 11:41:53;;;;;;;9.07;6.22;;;;;;;;;;10458737;28;20020;-77
2022/11/17 11:47:12;;;;;;;12.95;6.72;;;;;;;;;;10458834;28;20424;-74
2022/11/17 11:52:16;;;;;;;14.48;6.88;;;;;;;;;;10472654;28;20062;-72
2022/11/17 11:57:19;;;;;;;12.57;6.38;;;;;;;;;;10470424;28;20031;-73
2022/11/17 12:02:26;;;;;;;12.35;5.07;;;;;;;;;;10462077;28;20044;-71
2022/11/17 12:07:32;;;;;;;11.68;5.60;;;;;;;;;;10481621;28;20032;-73
2022/11/17 12:12:35;;;;;;;11.95;6.80;;;;;;;;;;10467638;28;20063;-75
2022/11/17 12:17:36;;;;;;;15.43;5.70;;;;;;;;;;10491605;28;20032;-72
2022/11/17 12:22:52;;;;;;;10.15;5.18;;;;;;;;;;10449470;28;20526;-79
2022/11/17 12:27:53;;;;;;;11.52;6.05;;;;;;;;;;10470639;28;20037;-73
2022/11/17 12:32:54;;;;;;;13.50;5.85;;;;;;;;;;10491591;28;20610;-72
2022/11/17 12:38:26;;;;;;;14.00;7.00;;;;;;;;;;10491974;28;20027;-74
2022/11/17 12:43:28;;;;;;;12.57;6.40;;;;;;;;;;10404857;28;20307;-74
2022/11/17 12:48:30;;;;;;;9.52;5.05;;;;;;;;;;10472441;28;20017;-75
2022/11/17 12:53:49;;;;;;;8.70;4.53;;;;;;;;;;10473123;28;20028;-74
2022/11/17 12:58:49;;;;;;;6.15;3.40;;;;;;;;;;10472399;28;20020;-75
2022/11/17 13:04:07;;;;;;;8.73;3.80;;;;;;;;;;10472926;28;20031;-74
2022/11/17 13:09:10;;;;;;;2.87;2.00;;;;;;;;;;10482336;28;20503;-74
2022/11/17 13:14:15;;;;;;;6.47;2.65;;;;;;;;;;10493521;28;20354;-75
2022/11/17 13:19:41;;;;;;;4.38;1.67;;;;;;;;;;10479069;28;20039;-80
2022/11/17 13:24:43;;;;;;;1.77;1.60;;;;;;;;;;10480100;28;20044;-73
2022/11/17 13:29:43;;;;;;;4.82;1.63;;;;;;;;;;10472559;28;20086;-75
2022/11/17 13:34:58;;;;;;;3.58;2.88;;;;;;;;;;10486382;28;20020;-72
2022/11/17 13:40:00;;;;;;;7.80;3.47;;;;;;;;;;10454772;28;20077;-71
2022/11/17 13:45:01;;;;;;;9.55;4.50;;;;;;;;;;10470961;28;20043;-77
2022/11/17 13:50:20;;;;;;;9.70;4.40;;;;;;;;;;10487513;28;20052;-77
2022/11/17 13:55:21;;;;;;;12.32;5.13;;;;;;;;;;10470447;28;20028;-75
2022/11/17 14:00:22;;;;;;;5.47;2.78;;;;;;;;;;10489115;28;20023;-73
2022/11/17 14:05:26;;;;;;;8.50;4.32;;;;;;;;;;10487291;28;20012;-73
2022/11/17 14:10:29;;;;;;;8.07;4.15;;;;;;;;;;10468440;28;20012;-76
2022/11/17 14:15:30;;;;;;;6.15;3.83;;;;;;;;;;10460438;28;20025;-74
2022/11/17 14:20:32;;;;;;;8.82;5.07;;;;;;;;;;10470430;28;20045;-75
2022/11/17 14:25:34;;;;;;;7.95;4.40;;;;;;;;;;10469631;28;20506;-74
2022/11/17 14:30:35;;;;;;;13.02;5.95;;;;;;;;;;10490104;28;20130;-74
2022/11/17 14:35:35;;;;;;;19.38;6.88;;;;;;;;;;10471647;28;20399;-72
2022/11/17 14:40:35;;;;;;;11.52;5.45;;;;;;;;;;10458846;28;20405;-80
2022/11/17 14:45:35;;;;;;;10.57;5.47;;;;;;;;;;10482879;28;20032;-76
2022/11/17 14:50:36;;;;;;;8.45;4.97;;;;;;;;;;10451297;28;20025;-75
2022/11/17 14:55:36;;;;;;;10.63;5.38;;;;;;;;;;10461415;28;20028;-73
2022/11/17 15:00:36;;;;;;;11.65;5.82;;;;;;;;;;10464739;28;20089;-73
2022/11/17 15:05:46;;;;;;;14.35;6.47;;;;;;;;;;10484431;28;20020;-74
2022/11/17 15:10:47;;;;;;;14.73;6.88;;;;;;;;;;10464958;28;20048;-72
2022/11/17 15:15:47;;;;;;;14.35;7.25;;;;;;;;;;10459650;28;20024;-73
2022/11/17 15:20:47;;;;;;;14.80;7.90;;;;;;;;;;10460118;28;20049;-74
2022/11/17 15:25:47;;;;;;;11.52;6.18;;;;;;;;;;10467660;28;20028;-73
2022/11/17 15:30:48;;;;;;;15.23;7.82;;;;;;;;;;10452489;28;20017;-74
2022/11/17 15:35:58;;;;;;;13.65;6.75;;;;;;;;;;10466428;28;20033;-75
2022/11/17 15:40:58;;;;;;;13.90;8.13;;;;;;;;;;10446323;28;20584;-76
2022/11/17 15:46:03;;;;;;;18.08;9.25;;;;;;;;;;10465724;28;20028;-72
2022/11/17 15:51:03;;;;;;;20.58;8.95;;;;;;;;;;10468547;28;20025;-73
2022/11/17 15:56:24;;;;;;;20.98;9.40;;;;;;;;;;10490322;28;20484;-76
2022/11/17 16:01:27;;;;;;;21.70;9.82;;;;;;;;;;10487007;28;20028;-75
2022/11/17 16:06:28;;;;;;;16.63;9.63;;;;;;;;;;10471070;28;20115;-73
2022/11/17 16:11:29;;;;;;;22.48;9.50;;;;;;;;;;10493362;28;20035;-73
2022/11/17 16:16:35;;;;;;;20.98;8.93;;;;;;;;;;10492396;28;20032;-73
2022/11/17 16:21:35;;;;;;;21.40;9.35;;;;;;;;;;10478874;28;20053;-73
2022/11/17 16:26:36;;;;;;;21.25;9.88;;;;;;;;;;10489697;28;20637;-73
2022/11/17 16:31:37;;;;;;;17.25;9.35;;;;;;;;;;10467380;28;20028;-73
2022/11/17 16:36:39;;;;;;;19.45;9.05;;;;;;;;;;10468948;28;20119;-72
2022/11/17 16:41:40;;;;;;;20.75;9.00;;;;;;;;;;10462414;28;20029;-72
2022/11/17 16:46:41;;;;;;;17.15;8.98;;;;;;;;;;10463964;28;20033;-72
2022/11/17 16:51:51;;;;;;;24.95;10.43;;;;;;;;;;10471270;28;20033;-75
2022/11/17 16:56:51;;;;;;;27.65;12.70;;;;;;;;;;10463527;28;20477;-73
2022/11/17 17:01:52;;;;;;;27.05;12.27;;;;;;;;;;10469799;28;20021;-72
2022/11/17 17:06:52;;;;;;;21.00;13.35;;;;;;;;;;10477434;28;20111;-74
2022/11/17 17:11:53;;;;;;;25.17;13.07;;;;;;;;;;10480268;28;20032;-76
2022/11/17 17:16:55;;;;;;;33.67;15.75;;;;;;;;;;10448744;28;20119;-72
2022/11/17 17:21:57;;;;;;;29.55;13.35;;;;;;;;;;10456771;28;20431;-72
2022/11/17 17:26:57;;;;;;;28.40;15.57;;;;;;;;;;10458443;28;20039;-73
2022/11/17 17:31:58;;;;;;;26.38;13.82;;;;;;;;;;10464427;28;20397;-74
2022/11/17 17:36:58;;;;;;;28.75;14.23;;;;;;;;;;10464061;28;20407;-75
2022/11/17 17:41:59;;;;;;;25.05;15.02;;;;;;;;;;10460405;28;20039;-72
2022/11/17 17:46:59;;;;;;;24.48;13.35;;;;;;;;;;10455085;28;20032;-74
2022/11/17 17:51:59;;;;;;;36.85;14.43;;;;;;;;;;10438214;28;20028;-74
2022/11/17 17:57:00;;;;;;;33.80;14.10;;;;;;;;;;10456887;28;20039;-74
2022/11/17 18:02:00;;;;;;;34.00;14.20;;;;;;;;;;10476745;28;20487;-73
2022/11/17 18:07:01;;;;;;;27.30;13.93;;;;;;;;;;10456030;28;20025;-73
2022/11/17 18:12:02;;;;;;;34.08;15.73;;;;;;;;;;10454363;28;20029;-71
2022/11/17 18:17:03;;;;;;;35.43;14.93;;;;;;;;;;10460457;28;20025;-73
2022/11/17 18:22:05;;;;;;;32.40;13.38;;;;;;;;;;10479720;28;20056;-73
2022/11/17 18:27:06;;;;;;;30.23;13.18;;;;;;;;;;10474910;28;20036;-73
2022/11/17 18:32:06;;;;;;;26.80;13.88;;;;;;;;;;10487091;28;20043;-74
2022/11/17 18:37:06;;;;;;;26.70;12.97;;;;;;;;;;10462499;28;20039;-73
2022/11/17 18:42:07;;;;;;;22.48;12.23;;;;;;;;;;10456676;28;20039;-73
2022/11/17 18:47:07;;;;;;;21.88;12.80;;;;;;;;;;10481306;28;20028;-74
2022/11/17 18:52:08;;;;;;;26.00;12.52;;;;;;;;;;10461170;28;20040;-74
2022/11/17 18:57:08;;;;;;;23.52;12.70;;;;;;;;;;10462217;28;20100;-74
2022/11/17 19:02:09;;;;;;;26.80;13.65;;;;;;;;;;10456342;28;20479;-74
2022/11/17 19:07:09;;;;;;;33.08;12.35;;;;;;;;;;10467097;28;20032;-74
2022/11/17 19:12:09;;;;;;;27.13;14.13;;;;;;;;;;10458220;28;20067;-73
2022/11/17 19:17:10;;;;;;;28.57;13.60;;;;;;;;;;10456347;28;20025;-74
2022/11/17 19:22:10;;;;;;;26.87;13.43;;;;;;;;;;10463041;28;20106;-74
2022/11/17 19:27:10;;;;;;;24.75;12.38;;;;;;;;;;10484484;28;20066;-73
2022/11/17 19:32:11;;;;;;;24.33;12.83;;;;;;;;;;10482316;28;20043;-74
2022/11/17 19:37:11;;;;;;;25.50;12.83;;;;;;;;;;10467061;28;20145;-75
2022/11/17 19:42:12;;;;;;;31.30;13.45;;;;;;;;;;10485622;28;20450;-73
2022/11/17 19:47:12;;;;;;;28.40;14.38;;;;;;;;;;10457745;28;20044;-75
2022/11/17 19:52:13;;;;;;;26.00;14.33;;;;;;;;;;10468638;28;20124;-74
2022/11/17 19:57:13;;;;;;;36.13;15.18;;;;;;;;;;10468755;28;20081;-73
2022/11/17 20:02:13;;;;;;;29.70;13.77;;;;;;;;;;10478345;28;20052;-74
2022/11/17 20:07:14;;;;;;;25.65;14.05;;;;;;;;;;10467930;28;20035;-74
2022/11/17 20:12:15;;;;;;;25.95;14.88;;;;;;;;;;10485945;28;20522;-74
2022/11/17 20:17:15;;;;;;;41.88;15.38;;;;;;;;;;10468058;28;20024;-73
2022/11/17 20:22:16;;;;;;;33.13;14.60;;;;;;;;;;10487130;28;20048;-73
2022/11/17 20:27:16;;;;;;;40.75;18.27;;;;;;;;;;10480001;28;20044;-74
2022/11/17 20:32:16;;;;;;;32.73;16.53;;;;;;;;;;10469906;28;20028;-73
2022/11/17 20:37:17;;;;;;;32.90;16.80;;;;;;;;;;10486448;28;20042;-73
2022/11/17 20:42:17;;;;;;;44.20;18.38;;;;;;;;;;10464624;28;20021;-73
2022/11/17 20:47:26;;;;;;;31.58;15.23;;;;;;;;;;10474193;28;20036;-73
2022/11/17 20:52:26;;;;;;;30.88;14.55;;;;;;;;;;10458815;28;20669;-74
2022/11/17 20:57:26;;;;;;;30.13;16.45;;;;;;;;;;10460250;28;20066;-74
2022/11/17 21:02:28;;;;;;;34.10;16.25;;;;;;;;;;10481308;28;20039;-75
2022/11/17 21:07:28;;;;;;;34.85;16.42;;;;;;;;;;10460800;28;20405;-74
2022/11/17 21:12:28;;;;;;;26.55;14.75;;;;;;;;;;10459332;28;20488;-73
2022/11/17 21:22:47;;;;;;;35.92;16.85;;;;;;;;;;10486507;28;20048;-73
2022/11/17 21:27:49;;;;;;;32.00;15.27;;;;;;;;;;10493331;28;20431;-73
2022/11/17 21:32:49;;;;;;;38.78;17.48;;;;;;;;;;10477634;28;20035;-75
2022/11/17 21:37:50;;;;;;;39.53;16.03;;;;;;;;;;10496738;28;20024;-71
2022/11/17 21:42:50;;;;;;;29.80;17.17;;;;;;;;;;10461771;28;20092;-76
2022/11/17 21:47:51;;;;;;;25.90;14.13;;;;;;;;;;10470406;28;20020;-76
2022/11/17 21:52:52;;;;;;;29.73;16.20;;;;;;;;;;10468899;28;20077;-73
2022/11/17 21:57:52;;;;;;;28.40;15.40;;;;;;;;;;10468212;28;20124;-74
2022/11/17 22:02:52;;;;;;;34.25;15.70;;;;;;;;;;10452309;28;20028;-74
2022/11/17 22:07:52;;;;;;;29.80;17.13;;;;;;;;;;10452004;28;20025;-75
2022/11/17 22:12:53;;;;;;;28.27;14.68;;;;;;;;;;10486202;28;20029;-77
2022/11/17 22:17:53;;;;;;;31.63;15.85;;;;;;;;;;10468972;28;20024;-74
2022/11/17 22:22:54;;;;;;;26.00;15.07;;;;;;;;;;10469079;28;20089;-74
2022/11/17 22:27:55;;;;;;;25.98;15.52;;;;;;;;;;10468974;28;20029;-78
2022/11/17 22:32:55;;;;;;;36.83;15.88;;;;;;;;;;10468951;28;20364;-75
2022/11/17 22:37:55;;;;;;;29.73;15.48;;;;;;;;;;10467276;28;20111;-74
2022/11/17 22:42:57;;;;;;;31.08;16.20;;;;;;;;;;10470277;28;20423;-75
2022/11/17 22:47:57;;;;;;;28.70;16.65;;;;;;;;;;10470079;28;20072;-78
2022/11/17 22:52:57;;;;;;;31.45;17.05;;;;;;;;;;10469869;28;20203;-79
2022/11/17 22:57:58;;;;;;;25.38;16.05;;;;;;;;;;10469931;28;20021;-75
2022/11/17 23:02:58;;;;;;;36.60;17.23;;;;;;;;;;10477820;28;20074;-73
2022/11/17 23:07:58;;;;;;;37.17;16.40;;;;;;;;;;10478296;28;20508;-75
2022/11/17 23:12:59;;;;;;;27.40;16.10;;;;;;;;;;10477400;28;20552;-74
2022/11/17 23:17:59;;;;;;;26.25;13.93;;;;;;;;;;10477789;28;20472;-74
2022/11/17 23:22:59;;;;;;;32.10;17.48;;;;;;;;;;10477695;28;20040;-76
2022/11/17 23:28:00;;;;;;;39.38;16.05;;;;;;;;;;10477690;28;20103;-73
2022/11/17 23:33:00;;;;;;;31.75;15.15;;;;;;;;;;10477489;28;20020;-74
2022/11/17 23:38:00;;;;;;;30.90;17.23;;;;;;;;;;10461086;28;20167;-76
2022/11/17 23:43:01;;;;;;;26.33;16.05;;;;;;;;;;10496151;28;20573;-75
2022/11/17 23:48:01;;;;;;;29.77;15.80;;;;;;;;;;10476304;28;20506;-73
2022/11/17 23:53:01;;;;;;;29.58;15.55;;;;;;;;;;10468410;28;20024;-74
2022/11/17 23:58:03;;;;;;;37.40;16.30;;;;;;;;;;10483421;28;20094;-74
